Rms Queen Mary 2 — ZCEF6 — position and weather

sailwx.info

Track history (hours):
 
Tides and Currents Weather Stations Pressure Air Temp Water Temp Dewpoint Dewpoint Depression Visibility Wind Speed Wind Dir Waves Ship Positions

Rms Queen Mary 2

Last reported at 2019-Jun-16 01:00 UTC. Time now 2019-Jun-16 01:29 UTC.
Position N 53°49' E 009°22'.

Length 345 m; draft 10.3 m.

Type: Passenger vessel. MMSI: 310627000.

Date/timePositionNaut miles runAvg speedWind from/ knotsBaromVisibWave heightAir tempDewpointWater temp
2019-Jun-16 01:00N 53°49' E 009°22'714.6
2019-Jun-16 00:30N 53°53' E 009°11'5 9.2
2019-Jun-16 00:00N 53°52' E 009°04'714.1
2019-Jun-15 23:30N 53°50' E 008°52'612.1
2019-Jun-15 23:00N 53°53' E 008°43'713.5
2019-Jun-15 22:31N 53°58' E 008°35'714.6
2019-Jun-15 22:00N 53°59' E 008°23'714.2
2019-Jun-15 21:31N 53°60' E 008°11'611.3
2019-Jun-15 21:00N 53°59' E 008°01'714.2
2019-Jun-15 20:30N 53°57' E 007°49'9817.2
2019-Jun-15 14:48N 53°30' E 005°09'618.1
2019-Jun-15 14:28N 53°28' E 004°60'1716.6
2019-Jun-15 13:26N 53°17' E 004°38'818.2
2019-Jun-15 13:00N 53°10' E 004°33'4271.0
2019-Jun-15 13:00N 53°06' E 004°30'5 9.8 280 / 181013.610.8 18.512.214.0
2019-Jun-15 12:30N 53°03' E 004°24'917.5
2019-Jun-15 12:00N 52°55' E 004°18'817.1
2019-Jun-15 11:31N 52°47' E 004°11'917.1
2019-Jun-15 11:00N 52°41' E 004°01'816.9
2019-Jun-15 10:30N 52°35' E 003°52'816.8
2019-Jun-15 10:00N 52°29' E 003°43'714.8
2019-Jun-15 09:30N 52°23' E 003°35'714.9
2019-Jun-15 09:00N 52°18' E 003°26'815.5
2019-Jun-15 08:30N 52°13' E 003°16'815.9
2019-Jun-15 08:00N 52°07' E 003°07'815.5
2019-Jun-15 07:30N 52°02' E 002°59'1014.9
2019-Jun-15 06:51N 51°54' E 002°48'514.8
2019-Jun-15 06:30N 51°50' E 002°43'1222.5
2019-Jun-15 06:00N 51°42' E 002°30'4461.8 290 / 121012.010.8 17.511.113.3
2019-Jun-15 05:59N 51°45' E 002°35'715.2
2019-Jun-15 05:30N 51°39' E 002°27'815.9
2019-Jun-15 05:01N 51°33' E 002°19'816.2
2019-Jun-15 04:30N 51°26' E 002°11'816.1
2019-Jun-15 04:00N 51°19' E 002°07'816.1
2019-Jun-15 03:30N 51°12' E 002°00'816.6
2019-Jun-15 03:00N 51°08' E 001°49'816.7
2019-Jun-15 02:31N 51°02' E 001°39'917.3
2019-Jun-15 02:00N 50°56' E 001°29'917.2
2019-Jun-15 01:31N 50°48' E 001°23'916.9
2019-Jun-15 01:00N 50°41' E 001°17'917.2
2019-Jun-15 00:30N 50°35' E 001°07'917.0
2019-Jun-14 23:58N 50°29' E 000°56'1016.3
2019-Jun-14 23:22N 50°25' E 000°42'3525.4
2019-Jun-14 22:00N 50°18' W 000°12'12328.4 060 / 61012.610.8 15.011.312.8
2019-Jun-14 21:57N 50°18' E 000°06'716.5
2019-Jun-14 21:30N 50°20' W 000°05'1117.2
2019-Jun-14 20:53N 50°25' W 000°20'717.8
2019-Jun-14 20:30N 50°28' W 000°29'918.0
2019-Jun-14 20:00N 50°32' W 000°42'817.0
2019-Jun-14 19:30N 50°36' W 000°53'611.9
2019-Jun-14 19:00N 50°42' W 000°57'714.6
2019-Jun-14 18:30N 50°45' W 001°07'815.4
2019-Jun-14 18:00N 50°48' W 001°19'4 8.2
2019-Jun-14 17:30N 50°51' W 001°21'3 5.7
2019-Jun-14 17:00N 50°53' W 001°24'0 0.0
2019-Jun-14 16:30N 50°53' W 001°24'0 0.0
2019-Jun-14 16:00N 50°53' W 001°24'0 0.0
2019-Jun-14 15:30N 50°53' W 001°24'0 0.0
2019-Jun-14 15:00N 50°53' W 001°24'0 0.0
2019-Jun-14 14:30N 50°53' W 001°24'0 0.0
2019-Jun-14 14:00N 50°53' W 001°24'0 0.0
2019-Jun-14 13:30N 50°53' W 001°24'0 0.0
2019-Jun-14 13:00N 50°53' W 001°24'0 0.0
2019-Jun-14 12:30N 50°53' W 001°24'0 0.0
2019-Jun-14 12:00N 50°53' W 001°24'0 0.0
2019-Jun-14 11:30N 50°53' W 001°24'0 0.0
2019-Jun-14 11:00N 50°53' W 001°24'0 0.0
2019-Jun-14 10:30N 50°53' W 001°24'0 0.0
2019-Jun-14 10:00N 50°53' W 001°24'0 0.0
2019-Jun-14 09:30N 50°53' W 001°24'0 0.0
2019-Jun-14 09:00N 50°53' W 001°24'0 0.0
2019-Jun-14 08:30N 50°53' W 001°24'0 0.0
2019-Jun-14 08:00N 50°53' W 001°24'0 0.0
2019-Jun-14 07:30N 50°53' W 001°24'0 0.0
2019-Jun-14 07:00N 50°53' W 001°24'0 0.0
2019-Jun-14 06:30N 50°53' W 001°24'0 0.0
2019-Jun-14 06:00N 50°53' W 001°24'0 0.0
2019-Jun-14 05:30N 50°53' W 001°24'0 0.1
2019-Jun-14 05:00N 50°53' W 001°24'1 1.2
2019-Jun-14 04:30N 50°53' W 001°24'4 8.1
2019-Jun-14 04:00N 50°50' W 001°19'4 8.1
2019-Jun-14 03:30N 50°46' W 001°16'816.5
2019-Jun-14 03:00N 50°44' W 001°04'612.0
2019-Jun-14 02:30N 50°40' W 000°57'5 9.1
2019-Jun-14 02:00N 50°35' W 000°58'1019.5
2019-Jun-14 01:30N 50°30' W 001°10'1321.0
2019-Jun-14 00:52N 50°26' W 001°30'1722.0
2019-Jun-14 00:07N 50°20' W 001°54'322.6
2019-Jun-13 23:58N 50°19' W 001°59'1722.4
2019-Jun-13 23:13N 50°15' W 002°25'522.6
2019-Jun-13 23:00N 50°14' W 002°32'1122.9
2019-Jun-13 22:31N 50°12' W 002°50'1223.1
2019-Jun-13 22:01N 50°08' W 003°07'1223.4
2019-Jun-13 21:31N 50°03' W 003°23'1223.5
2019-Jun-13 21:01N 49°58' W 003°39'1223.0
2019-Jun-13 20:30N 49°54' W 003°56'1122.3
2019-Jun-13 20:01N 49°50' W 004°12'19023.7
2019-Jun-13 12:00N 49°36' W 009°06'26120.1 020 / 111009.110.8 15.5 9.813.3
2019-Jun-12 23:00N 49°30' W 015°48'24121.9 040 / 451018.910.8 16.0 8.113.5
2019-Jun-12 12:00N 49°00' W 021°54'26422.0 050 / 191028.910.8 14.012.213.6
2019-Jun-12 00:00N 48°06' W 028°24'23321.1 170 / 281026.1 0.0 15.013.213.6
2019-Jun-11 13:00N 47°30' W 034°06'25823.4 180 / 101020.5 5.4 14.0 9.112.8
2019-Jun-11 02:00N 45°36' W 039°42'24422.2 270 / 251015.810.8 12.0 7.914.6
2019-Jun-10 15:00N 43°54' W 044°54'5016.5 280 / 221015.810.8 13.0 6.813.6
2019-Jun-10 12:00N 43°30' W 045°54'21123.5 330 / 211015.910.8 11.0 4.319.9
2019-Jun-10 03:00N 42°06' W 050°18'27120.9 330 / 401018.110.8 14.0 6.813.3
2019-Jun-09 14:00N 41°06' W 056°12'23023.0 330 / 281022.110.8 13.0 6.815.7
2019-Jun-09 04:00N 40°30' W 061°12'8717.3 260 / 201019.410.8 17.011.514.6
2019-Jun-08 23:00N 40°30' W 063°06'32222.0 350 / 201019.510.8 20.010.919.1
2019-Jun-08 08:20N 40°25' W 070°10'1922.5
2019-Jun-08 07:30N 40°25' W 070°34'1122.2
2019-Jun-08 06:59N 40°25' W 070°49'1122.4
2019-Jun-08 06:30N 40°24' W 071°04'1122.6
2019-Jun-08 06:01N 40°23' W 071°18'1122.5
2019-Jun-08 05:30N 40°22' W 071°33'1122.2
2019-Jun-08 05:00N 40°23' W 071°47'1122.5
2019-Jun-08 04:31N 40°23' W 072°02'1122.4
2019-Jun-08 04:00N 40°23' W 072°17'1122.2
2019-Jun-08 03:31N 40°23' W 072°31'1121.8
2019-Jun-08 03:00N 40°22' W 072°46'13766.3
2019-Jun-08 03:00N 40°18' W 072°30'2446.1 090 / 101020.2 0.1 17.015.315.2
2019-Jun-08 02:28N 40°22' W 073°01'2120.9
2019-Jun-08 01:28N 40°24' W 073°28'919.2
2019-Jun-08 01:00N 40°26' W 073°40'914.5
2019-Jun-08 00:22N 40°28' W 073°52'616.6
2019-Jun-08 00:00N 40°31' W 073°59'714.9
2019-Jun-07 23:30N 40°37' W 074°03'4 7.8
2019-Jun-07 23:00N 40°41' W 074°01'0 0.3
2019-Jun-07 22:30N 40°41' W 074°01'0 0.0
2019-Jun-07 22:00N 40°41' W 074°01'0 0.0
2019-Jun-07 21:30N 40°41' W 074°01'0 0.0
2019-Jun-07 21:00N 40°41' W 074°01'0 0.0
2019-Jun-07 20:27N 40°41' W 074°01'0 0.0
2019-Jun-07 19:57N 40°41' W 074°01'0 0.0
2019-Jun-07 19:30N 40°41' W 074°01'0 0.0
2019-Jun-07 19:00N 40°41' W 074°01'0 0.0
2019-Jun-07 18:30N 40°41' W 074°01'0 0.0
2019-Jun-07 18:00N 40°41' W 074°01'0 0.0
2019-Jun-07 17:27N 40°41' W 074°01'0 0.0
2019-Jun-07 17:00N 40°41' W 074°01'0 0.0
2019-Jun-07 16:30N 40°41' W 074°01'0 0.0
2019-Jun-07 16:00N 40°41' W 074°01'0 0.0
2019-Jun-07 15:27N 40°41' W 074°01'0 0.0
2019-Jun-07 15:00N 40°41' W 074°01'0 0.0
2019-Jun-07 14:30N 40°41' W 074°01'0 0.0
2019-Jun-07 13:57N 40°41' W 074°01'0 0.0
2019-Jun-07 13:27N 40°41' W 074°01'0 0.0
2019-Jun-07 13:00N 40°41' W 074°01'0 0.0
2019-Jun-07 12:29N 40°41' W 074°01'0 0.9
2019-Jun-07 12:01N 40°41' W 074°01'3 5.3
2019-Jun-07 11:30N 40°38' W 074°03'714.0
2019-Jun-07 11:00N 40°32' W 074°01'917.1
2019-Jun-07 10:30N 40°28' W 073°51'710.6
2019-Jun-07 09:52N 40°28' W 073°42'718.6
2019-Jun-07 09:30N 40°28' W 073°33'15724.2
2019-Jun-07 03:00N 40°30' W 070°06'37823.8 060 / 271015.310.8 13.011.110.2
2019-Jun-06 11:06N 44°30' W 063°31'112.1
2019-Jun-06 11:00N 44°31' W 063°31'5 9.9
2019-Jun-06 10:30N 44°36' W 063°33'2 5.0
2019-Jun-06 10:00N 44°39' W 063°34'0 0.4
2019-Jun-06 09:27N 44°38' W 063°34'0 0.0
2019-Jun-06 09:00N 44°38' W 063°34'2 3.3
2019-Jun-06 08:30N 44°37' W 063°33'612.3
2019-Jun-06 08:00N 44°31' W 063°30'612.5
2019-Jun-06 07:31N 44°26' W 063°26'  
Track history (hours):
 
Tides and Currents Weather Stations Pressure Air Temp Water Temp Dewpoint Dewpoint Depression Visibility Wind Speed Wind Dir Waves Ship Positions

Rms Queen Mary 2

Last reported at 2019-Jun-16 01:00 UTC. Time now 2019-Jun-16 01:29 UTC.
Position N 53°49' E 009°22'.

Length 345 m; draft 10.3 m.

Type: Passenger vessel. MMSI: 310627000.

Date/timePositionNaut miles runAvg speedWind from/ knotsBaromVisibWave heightAir tempDewpointWater temp
2019-Jun-16 01:00N 53°49' E 009°22'714.6
2019-Jun-16 00:30N 53°53' E 009°11'5 9.2
2019-Jun-16 00:00N 53°52' E 009°04'714.1
2019-Jun-15 23:30N 53°50' E 008°52'612.1
2019-Jun-15 23:00N 53°53' E 008°43'713.5
2019-Jun-15 22:31N 53°58' E 008°35'714.6
2019-Jun-15 22:00N 53°59' E 008°23'714.2
2019-Jun-15 21:31N 53°60' E 008°11'611.3
2019-Jun-15 21:00N 53°59' E 008°01'714.2
2019-Jun-15 20:30N 53°57' E 007°49'9817.2
2019-Jun-15 14:48N 53°30' E 005°09'618.1
2019-Jun-15 14:28N 53°28' E 004°60'1716.6
2019-Jun-15 13:26N 53°17' E 004°38'818.2
2019-Jun-15 13:00N 53°10' E 004°33'4271.0
2019-Jun-15 13:00N 53°06' E 004°30'5 9.8 280 / 181013.610.8 18.512.214.0
2019-Jun-15 12:30N 53°03' E 004°24'917.5
2019-Jun-15 12:00N 52°55' E 004°18'817.1
2019-Jun-15 11:31N 52°47' E 004°11'917.1
2019-Jun-15 11:00N 52°41' E 004°01'816.9
2019-Jun-15 10:30N 52°35' E 003°52'816.8
2019-Jun-15 10:00N 52°29' E 003°43'714.8
2019-Jun-15 09:30N 52°23' E 003°35'714.9
2019-Jun-15 09:00N 52°18' E 003°26'815.5
2019-Jun-15 08:30N 52°13' E 003°16'815.9
2019-Jun-15 08:00N 52°07' E 003°07'815.5
2019-Jun-15 07:30N 52°02' E 002°59'1014.9
2019-Jun-15 06:51N 51°54' E 002°48'514.8
2019-Jun-15 06:30N 51°50' E 002°43'1222.5
2019-Jun-15 06:00N 51°42' E 002°30'4461.8 290 / 121012.010.8 17.511.113.3
2019-Jun-15 05:59N 51°45' E 002°35'715.2
2019-Jun-15 05:30N 51°39' E 002°27'815.9
2019-Jun-15 05:01N 51°33' E 002°19'816.2
2019-Jun-15 04:30N 51°26' E 002°11'816.1
2019-Jun-15 04:00N 51°19' E 002°07'816.1
2019-Jun-15 03:30N 51°12' E 002°00'816.6
2019-Jun-15 03:00N 51°08' E 001°49'816.7
2019-Jun-15 02:31N 51°02' E 001°39'917.3
2019-Jun-15 02:00N 50°56' E 001°29'917.2
2019-Jun-15 01:31N 50°48' E 001°23'916.9
2019-Jun-15 01:00N 50°41' E 001°17'917.2
2019-Jun-15 00:30N 50°35' E 001°07'917.0
2019-Jun-14 23:58N 50°29' E 000°56'1016.3
2019-Jun-14 23:22N 50°25' E 000°42'3525.4
2019-Jun-14 22:00N 50°18' W 000°12'12328.4 060 / 61012.610.8 15.011.312.8
2019-Jun-14 21:57N 50°18' E 000°06'716.5
2019-Jun-14 21:30N 50°20' W 000°05'1117.2
2019-Jun-14 20:53N 50°25' W 000°20'717.8
2019-Jun-14 20:30N 50°28' W 000°29'918.0
2019-Jun-14 20:00N 50°32' W 000°42'817.0
2019-Jun-14 19:30N 50°36' W 000°53'611.9
2019-Jun-14 19:00N 50°42' W 000°57'714.6
2019-Jun-14 18:30N 50°45' W 001°07'815.4
2019-Jun-14 18:00N 50°48' W 001°19'4 8.2
2019-Jun-14 17:30N 50°51' W 001°21'3 5.7
2019-Jun-14 17:00N 50°53' W 001°24'0 0.0
2019-Jun-14 16:30N 50°53' W 001°24'0 0.0
2019-Jun-14 16:00N 50°53' W 001°24'0 0.0
2019-Jun-14 15:30N 50°53' W 001°24'0 0.0
2019-Jun-14 15:00N 50°53' W 001°24'0 0.0
2019-Jun-14 14:30N 50°53' W 001°24'0 0.0
2019-Jun-14 14:00N 50°53' W 001°24'0 0.0
2019-Jun-14 13:30N 50°53' W 001°24'0 0.0
2019-Jun-14 13:00N 50°53' W 001°24'0 0.0
2019-Jun-14 12:30N 50°53' W 001°24'0 0.0
2019-Jun-14 12:00N 50°53' W 001°24'0 0.0
2019-Jun-14 11:30N 50°53' W 001°24'0 0.0
2019-Jun-14 11:00N 50°53' W 001°24'0 0.0
2019-Jun-14 10:30N 50°53' W 001°24'0 0.0
2019-Jun-14 10:00N 50°53' W 001°24'0 0.0
2019-Jun-14 09:30N 50°53' W 001°24'0 0.0
2019-Jun-14 09:00N 50°53' W 001°24'0 0.0
2019-Jun-14 08:30N 50°53' W 001°24'0 0.0
2019-Jun-14 08:00N 50°53' W 001°24'0 0.0
2019-Jun-14 07:30N 50°53' W 001°24'0 0.0
2019-Jun-14 07:00N 50°53' W 001°24'0 0.0
2019-Jun-14 06:30N 50°53' W 001°24'0 0.0
2019-Jun-14 06:00N 50°53' W 001°24'0 0.0
2019-Jun-14 05:30N 50°53' W 001°24'0 0.1
2019-Jun-14 05:00N 50°53' W 001°24'1 1.2
2019-Jun-14 04:30N 50°53' W 001°24'4 8.1
2019-Jun-14 04:00N 50°50' W 001°19'4 8.1
2019-Jun-14 03:30N 50°46' W 001°16'816.5
2019-Jun-14 03:00N 50°44' W 001°04'612.0
2019-Jun-14 02:30N 50°40' W 000°57'5 9.1
2019-Jun-14 02:00N 50°35' W 000°58'1019.5
2019-Jun-14 01:30N 50°30' W 001°10'1321.0
2019-Jun-14 00:52N 50°26' W 001°30'1722.0
2019-Jun-14 00:07N 50°20' W 001°54'322.6
2019-Jun-13 23:58N 50°19' W 001°59'1722.4
2019-Jun-13 23:13N 50°15' W 002°25'522.6
2019-Jun-13 23:00N 50°14' W 002°32'1122.9
2019-Jun-13 22:31N 50°12' W 002°50'1223.1
2019-Jun-13 22:01N 50°08' W 003°07'1223.4
2019-Jun-13 21:31N 50°03' W 003°23'1223.5
2019-Jun-13 21:01N 49°58' W 003°39'1223.0
2019-Jun-13 20:30N 49°54' W 003°56'1122.3
2019-Jun-13 20:01N 49°50' W 004°12'19023.7
2019-Jun-13 12:00N 49°36' W 009°06'26120.1 020 / 111009.110.8 15.5 9.813.3
2019-Jun-12 23:00N 49°30' W 015°48'24121.9 040 / 451018.910.8 16.0 8.113.5
2019-Jun-12 12:00N 49°00' W 021°54'26422.0 050 / 191028.910.8 14.012.213.6
2019-Jun-12 00:00N 48°06' W 028°24'23321.1 170 / 281026.1 0.0 15.013.213.6
2019-Jun-11 13:00N 47°30' W 034°06'25823.4 180 / 101020.5 5.4 14.0 9.112.8
2019-Jun-11 02:00N 45°36' W 039°42'24422.2 270 / 251015.810.8 12.0 7.914.6
2019-Jun-10 15:00N 43°54' W 044°54'5016.5 280 / 221015.810.8 13.0 6.813.6
2019-Jun-10 12:00N 43°30' W 045°54'21123.5 330 / 211015.910.8 11.0 4.319.9
2019-Jun-10 03:00N 42°06' W 050°18'27120.9 330 / 401018.110.8 14.0 6.813.3
2019-Jun-09 14:00N 41°06' W 056°12'23023.0 330 / 281022.110.8 13.0 6.815.7
2019-Jun-09 04:00N 40°30' W 061°12'8717.3 260 / 201019.410.8 17.011.514.6
2019-Jun-08 23:00N 40°30' W 063°06'32222.0 350 / 201019.510.8 20.010.919.1
2019-Jun-08 08:20N 40°25' W 070°10'1922.5
2019-Jun-08 07:30N 40°25' W 070°34'1122.2
2019-Jun-08 06:59N 40°25' W 070°49'1122.4
2019-Jun-08 06:30N 40°24' W 071°04'1122.6
2019-Jun-08 06:01N 40°23' W 071°18'1122.5
2019-Jun-08 05:30N 40°22' W 071°33'1122.2
2019-Jun-08 05:00N 40°23' W 071°47'1122.5
2019-Jun-08 04:31N 40°23' W 072°02'1122.4
2019-Jun-08 04:00N 40°23' W 072°17'1122.2
2019-Jun-08 03:31N 40°23' W 072°31'1121.8
2019-Jun-08 03:00N 40°22' W 072°46'13766.3
2019-Jun-08 03:00N 40°18' W 072°30'2446.1 090 / 101020.2 0.1 17.015.315.2
2019-Jun-08 02:28N 40°22' W 073°01'2120.9
2019-Jun-08 01:28N 40°24' W 073°28'919.2
2019-Jun-08 01:00N 40°26' W 073°40'914.5
2019-Jun-08 00:22N 40°28' W 073°52'616.6
2019-Jun-08 00:00N 40°31' W 073°59'714.9
2019-Jun-07 23:30N 40°37' W 074°03'4 7.8
2019-Jun-07 23:00N 40°41' W 074°01'0 0.3
2019-Jun-07 22:30N 40°41' W 074°01'0 0.0
2019-Jun-07 22:00N 40°41' W 074°01'0 0.0
2019-Jun-07 21:30N 40°41' W 074°01'0 0.0
2019-Jun-07 21:00N 40°41' W 074°01'0 0.0
2019-Jun-07 20:27N 40°41' W 074°01'0 0.0
2019-Jun-07 19:57N 40°41' W 074°01'0 0.0
2019-Jun-07 19:30N 40°41' W 074°01'0 0.0
2019-Jun-07 19:00N 40°41' W 074°01'0 0.0
2019-Jun-07 18:30N 40°41' W 074°01'0 0.0
2019-Jun-07 18:00N 40°41' W 074°01'0 0.0
2019-Jun-07 17:27N 40°41' W 074°01'0 0.0
2019-Jun-07 17:00N 40°41' W 074°01'0 0.0
2019-Jun-07 16:30N 40°41' W 074°01'0 0.0
2019-Jun-07 16:00N 40°41' W 074°01'0 0.0
2019-Jun-07 15:27N 40°41' W 074°01'0 0.0
2019-Jun-07 15:00N 40°41' W 074°01'0 0.0
2019-Jun-07 14:30N 40°41' W 074°01'0 0.0
2019-Jun-07 13:57N 40°41' W 074°01'0 0.0
2019-Jun-07 13:27N 40°41' W 074°01'0 0.0
2019-Jun-07 13:00N 40°41' W 074°01'0 0.0
2019-Jun-07 12:29N 40°41' W 074°01'0 0.9
2019-Jun-07 12:01N 40°41' W 074°01'3 5.3
2019-Jun-07 11:30N 40°38' W 074°03'714.0
2019-Jun-07 11:00N 40°32' W 074°01'917.1
2019-Jun-07 10:30N 40°28' W 073°51'710.6
2019-Jun-07 09:52N 40°28' W 073°42'718.6
2019-Jun-07 09:30N 40°28' W 073°33'15724.2
2019-Jun-07 03:00N 40°30' W 070°06'37823.8 060 / 271015.310.8 13.011.110.2
2019-Jun-06 11:06N 44°30' W 063°31'112.1
2019-Jun-06 11:00N 44°31' W 063°31'5 9.9
2019-Jun-06 10:30N 44°36' W 063°33'2 5.0
2019-Jun-06 10:00N 44°39' W 063°34'0 0.4
2019-Jun-06 09:27N 44°38' W 063°34'0 0.0
2019-Jun-06 09:00N 44°38' W 063°34'2 3.3
2019-Jun-06 08:30N 44°37' W 063°33'612.3
2019-Jun-06 08:00N 44°31' W 063°30'612.5
2019-Jun-06 07:31N 44°26' W 063°26'  

Dump ship's entire track history